| Date | Time | Temp. (oF) | Dew Point (oF) | Rel. Hum. (%) | Press. (in.) | Wind Dir. | Wind Speed (mph) | Hourly Rainfall (in.) |
|
|---|---|---|---|---|---|---|---|---|---|
| 1 | 05/14 | 00:00 | 59 | 44 | 59 | 30.30 | S | 6 | 0.00 |
| 2 | 05/13 | 23:00 | 60 | 46 | 61 | 30.30 | SSW | 15 | 0.00 |
| 3 | 05/13 | 22:00 | 61 | 45 | 56 | 30.30 | S | 5 | 0.00 |
| 4 | 05/13 | 21:00 | 61 | 42 | 51 | 30.29 | SW | 5 | 0.00 |
| 5 | 05/13 | 20:00 | 64 | 44 | 49 | 30.29 | SE | 5 | 0.00 |
| 6 | 05/13 | 19:00 | 67 | 42 | 41 | 30.28 | SSW | 5 | 0.00 |
| 7 | 05/13 | 18:00 | 69 | 43 | 40 | 30.27 | SSE | 7 | 0.00 |
| 8 | 05/13 | 17:00 | 70 | 40 | 35 | 30.29 | S | 5 | 0.00 |
| 9 | 05/13 | 16:00 | 70 | 40 | 34 | 30.31 | SSW | 9 | 0.00 |
| 10 | 05/13 | 15:00 | 69 | 41 | 37 | 30.33 | SW | 6 | 0.00 |
| 11 | 05/13 | 14:00 | 70 | 38 | 32 | 30.34 | SSW | 7 | 0.00 |
| 12 | 05/13 | 13:00 | 69 | 41 | 37 | 30.34 | SSE | 7 | 0.00 |
| 13 | 05/13 | 12:00 | 68 | 41 | 39 | 30.36 | ESE | 10 | 0.00 |
| 14 | 05/13 | 11:00 | 65 | 41 | 43 | 30.39 | S | 4 | 0.00 |
| 15 | 05/13 | 10:00 | 61 | 49 | 66 | 30.39 | SSW | 5 | 0.00 |
| 16 | 05/13 | 09:00 | 54 | 46 | 75 | 30.39 | ENE | 2 | 0.00 |
| 17 | 05/13 | 08:00 | 47 | 46 | 97 | 30.38 | ESE | 0 | 0.00 |
| 18 | 05/13 | 07:00 | 41 | 40 | 98 | 30.36 | SSW | 0 | 0.00 |
| 19 | 05/13 | 06:00 | 39 | 37 | 96 | 30.35 | W | 0 | 0.00 |
| 20 | 05/13 | 05:00 | 40 | 38 | 95 | 30.33 | WSW | 2 | 0.00 |
| 21 | 05/13 | 04:00 | 42 | 40 | 93 | 30.33 | NW | 0 | 0.00 |
| 22 | 05/13 | 03:00 | 42 | 39 | 92 | 30.30 | NW | 0 | 0.00 |
| 23 | 05/13 | 02:00 | 43 | 39 | 89 | 30.31 | NW | 0 | 0.00 |
| 24 | 05/13 | 01:00 | 45 | 40 | 84 | 30.30 | NW | 0 | 0.00 |